sensor_id;sensor_type;location;lat;lon;timestamp;P1;durP1;ratioP1;P2;durP2;ratioP2
76714;SDS011;65644;44.990;20.288;2023-03-19T00:00:37;21.05;;;12.88;;
76714;SDS011;65644;44.990;20.288;2023-03-19T00:03:03;18.52;;;11.23;;
76714;SDS011;65644;44.990;20.288;2023-03-19T00:05:29;13.30;;;7.70;;
76714;SDS011;65644;44.990;20.288;2023-03-19T00:07:55;14.98;;;9.20;;
76714;SDS011;65644;44.990;20.288;2023-03-19T00:10:21;11.20;;;8.45;;
76714;SDS011;65644;44.990;20.288;2023-03-19T00:12:47;13.07;;;8.65;;
76714;SDS011;65644;44.990;20.288;2023-03-19T00:15:14;8.38;;;6.82;;
76714;SDS011;65644;44.990;20.288;2023-03-19T00:17:40;9.27;;;5.90;;
76714;SDS011;65644;44.990;20.288;2023-03-19T00:20:07;9.82;;;6.03;;
76714;SDS011;65644;44.990;20.288;2023-03-19T00:22:34;9.23;;;6.93;;
76714;SDS011;65644;44.990;20.288;2023-03-19T00:25:00;8.80;;;6.35;;
76714;SDS011;65644;44.990;20.288;2023-03-19T00:27:26;9.52;;;6.32;;
76714;SDS011;65644;44.990;20.288;2023-03-19T00:29:52;8.30;;;5.75;;
76714;SDS011;65644;44.990;20.288;2023-03-19T00:32:18;9.15;;;6.25;;
76714;SDS011;65644;44.990;20.288;2023-03-19T00:34:44;7.68;;;5.40;;
76714;SDS011;65644;44.990;20.288;2023-03-19T00:37:10;6.38;;;5.00;;
76714;SDS011;65644;44.990;20.288;2023-03-19T00:39:37;6.45;;;4.50;;
76714;SDS011;65644;44.990;20.288;2023-03-19T00:42:03;8.23;;;5.32;;
76714;SDS011;65644;44.990;20.288;2023-03-19T00:44:30;7.30;;;5.20;;
76714;SDS011;65644;44.990;20.288;2023-03-19T00:46:56;7.45;;;5.20;;
76714;SDS011;65644;44.990;20.288;2023-03-19T00:49:22;6.97;;;5.00;;
76714;SDS011;65644;44.990;20.288;2023-03-19T00:51:48;6.03;;;4.85;;
76714;SDS011;65644;44.990;20.288;2023-03-19T00:54:14;7.47;;;5.20;;
76714;SDS011;65644;44.990;20.288;2023-03-19T00:56:40;8.20;;;5.30;;
76714;SDS011;65644;44.990;20.288;2023-03-19T00:59:06;6.43;;;5.50;;
76714;SDS011;65644;44.990;20.288;2023-03-19T01:01:33;6.10;;;4.43;;
76714;SDS011;65644;44.990;20.288;2023-03-19T01:03:59;6.82;;;5.13;;
76714;SDS011;65644;44.990;20.288;2023-03-19T01:06:25;7.03;;;5.13;;
76714;SDS011;65644;44.990;20.288;2023-03-19T01:08:51;6.97;;;4.65;;
76714;SDS011;65644;44.990;20.288;2023-03-19T01:11:17;9.60;;;5.55;;
76714;SDS011;65644;44.990;20.288;2023-03-19T01:13:43;7.55;;;5.25;;
76714;SDS011;65644;44.990;20.288;2023-03-19T01:16:10;7.82;;;4.93;;
76714;SDS011;65644;44.990;20.288;2023-03-19T01:18:37;8.02;;;4.55;;
76714;SDS011;65644;44.990;20.288;2023-03-19T01:21:03;7.35;;;4.63;;
76714;SDS011;65644;44.990;20.288;2023-03-19T01:23:29;6.47;;;4.35;;
76714;SDS011;65644;44.990;20.288;2023-03-19T01:25:55;6.40;;;4.68;;
76714;SDS011;65644;44.990;20.288;2023-03-19T01:28:21;8.15;;;4.50;;
76714;SDS011;65644;44.990;20.288;2023-03-19T01:30:48;6.10;;;4.28;;
76714;SDS011;65644;44.990;20.288;2023-03-19T01:33:14;7.88;;;4.68;;
76714;SDS011;65644;44.990;20.288;2023-03-19T01:35:43;5.78;;;4.32;;
76714;SDS011;65644;44.990;20.288;2023-03-19T01:38:09;8.30;;;4.85;;
76714;SDS011;65644;44.990;20.288;2023-03-19T01:40:35;6.35;;;4.60;;
76714;SDS011;65644;44.990;20.288;2023-03-19T01:43:12;9.32;;;5.43;;
76714;SDS011;65644;44.990;20.288;2023-03-19T01:45:39;7.10;;;4.28;;
76714;SDS011;65644;44.990;20.288;2023-03-19T01:48:05;6.22;;;4.70;;
76714;SDS011;65644;44.990;20.288;2023-03-19T01:50:41;6.82;;;4.55;;
76714;SDS011;65644;44.990;20.288;2023-03-19T01:53:09;6.65;;;4.40;;
76714;SDS011;65644;44.990;20.288;2023-03-19T01:55:35;6.18;;;4.25;;
76714;SDS011;65644;44.990;20.288;2023-03-19T01:58:02;6.10;;;4.30;;
76714;SDS011;65644;44.990;20.288;2023-03-19T02:00:30;7.60;;;4.10;;
76714;SDS011;65644;44.990;20.288;2023-03-19T02:02:57;5.10;;;3.85;;
76714;SDS011;65644;44.990;20.288;2023-03-19T02:05:24;9.07;;;4.47;;
76714;SDS011;65644;44.990;20.288;2023-03-19T02:07:55;7.65;;;4.13;;
76714;SDS011;65644;44.990;20.288;2023-03-19T02:10:22;6.78;;;3.97;;
76714;SDS011;65644;44.990;20.288;2023-03-19T02:12:50;6.60;;;4.68;;
76714;SDS011;65644;44.990;20.288;2023-03-19T02:15:16;8.07;;;5.22;;
76714;SDS011;65644;44.990;20.288;2023-03-19T02:17:42;7.72;;;4.55;;
76714;SDS011;65644;44.990;20.288;2023-03-19T02:22:50;8.32;;;4.63;;
76714;SDS011;65644;44.990;20.288;2023-03-19T02:25:26;6.90;;;4.75;;
76714;SDS011;65644;44.990;20.288;2023-03-19T02:27:53;6.93;;;4.38;;
76714;SDS011;65644;44.990;20.288;2023-03-19T02:32:45;6.00;;;4.40;;
76714;SDS011;65644;44.990;20.288;2023-03-19T02:35:11;6.90;;;4.28;;
76714;SDS011;65644;44.990;20.288;2023-03-19T02:37:37;9.05;;;4.53;;
76714;SDS011;65644;44.990;20.288;2023-03-19T02:40:05;6.82;;;4.68;;
76714;SDS011;65644;44.990;20.288;2023-03-19T02:42:32;6.20;;;4.60;;
76714;SDS011;65644;44.990;20.288;2023-03-19T02:44:58;8.45;;;4.70;;
76714;SDS011;65644;44.990;20.288;2023-03-19T02:47:24;8.07;;;5.47;;
76714;SDS011;65644;44.990;20.288;2023-03-19T02:49:51;10.20;;;4.78;;
76714;SDS011;65644;44.990;20.288;2023-03-19T02:52:17;6.17;;;4.90;;
76714;SDS011;65644;44.990;20.288;2023-03-19T02:54:43;5.75;;;4.70;;
76714;SDS011;65644;44.990;20.288;2023-03-19T02:57:10;8.52;;;5.32;;
76714;SDS011;65644;44.990;20.288;2023-03-19T02:59:36;7.68;;;4.85;;
76714;SDS011;65644;44.990;20.288;2023-03-19T03:02:03;8.73;;;4.73;;
76714;SDS011;65644;44.990;20.288;2023-03-19T03:04:29;7.57;;;4.73;;
76714;SDS011;65644;44.990;20.288;2023-03-19T03:06:56;7.22;;;4.75;;
76714;SDS011;65644;44.990;20.288;2023-03-19T03:09:22;7.63;;;4.20;;
76714;SDS011;65644;44.990;20.288;2023-03-19T03:11:48;6.15;;;4.43;;
76714;SDS011;65644;44.990;20.288;2023-03-19T03:14:15;7.57;;;4.82;;
76714;SDS011;65644;44.990;20.288;2023-03-19T03:16:41;7.85;;;5.38;;
76714;SDS011;65644;44.990;20.288;2023-03-19T03:19:07;8.05;;;5.18;;
76714;SDS011;65644;44.990;20.288;2023-03-19T03:21:33;6.63;;;4.25;;
76714;SDS011;65644;44.990;20.288;2023-03-19T03:24:00;5.50;;;4.40;;
76714;SDS011;65644;44.990;20.288;2023-03-19T03:26:26;6.78;;;4.50;;
76714;SDS011;65644;44.990;20.288;2023-03-19T03:28:52;7.97;;;5.20;;
76714;SDS011;65644;44.990;20.288;2023-03-19T03:31:18;6.63;;;4.60;;
76714;SDS011;65644;44.990;20.288;2023-03-19T03:33:44;8.57;;;4.60;;
76714;SDS011;65644;44.990;20.288;2023-03-19T03:36:10;5.63;;;4.30;;
76714;SDS011;65644;44.990;20.288;2023-03-19T03:38:37;6.20;;;4.80;;
76714;SDS011;65644;44.990;20.288;2023-03-19T03:41:04;5.57;;;4.80;;
76714;SDS011;65644;44.990;20.288;2023-03-19T03:43:30;8.17;;;4.70;;
76714;SDS011;65644;44.990;20.288;2023-03-19T03:45:56;6.83;;;4.63;;
76714;SDS011;65644;44.990;20.288;2023-03-19T03:48:22;7.13;;;5.00;;
76714;SDS011;65644;44.990;20.288;2023-03-19T03:50:48;6.57;;;4.40;;
76714;SDS011;65644;44.990;20.288;2023-03-19T03:53:15;6.13;;;4.72;;
76714;SDS011;65644;44.990;20.288;2023-03-19T03:55:41;6.43;;;4.50;;
76714;SDS011;65644;44.990;20.288;2023-03-19T03:58:07;5.65;;;4.22;;
76714;SDS011;65644;44.990;20.288;2023-03-19T04:00:34;7.00;;;5.13;;
76714;SDS011;65644;44.990;20.288;2023-03-19T04:03:00;9.60;;;4.83;;
76714;SDS011;65644;44.990;20.288;2023-03-19T04:05:27;6.83;;;4.27;;
76714;SDS011;65644;44.990;20.288;2023-03-19T04:07:53;6.03;;;4.70;;
76714;SDS011;65644;44.990;20.288;2023-03-19T04:10:20;5.73;;;4.77;;
76714;SDS011;65644;44.990;20.288;2023-03-19T04:12:46;8.97;;;4.73;;
76714;SDS011;65644;44.990;20.288;2023-03-19T04:15:12;6.67;;;4.80;;
76714;SDS011;65644;44.990;20.288;2023-03-19T04:17:38;6.47;;;4.23;;
76714;SDS011;65644;44.990;20.288;2023-03-19T04:20:04;6.15;;;5.07;;
76714;SDS011;65644;44.990;20.288;2023-03-19T04:22:31;6.63;;;4.50;;
76714;SDS011;65644;44.990;20.288;2023-03-19T04:24:58;7.40;;;4.63;;
76714;SDS011;65644;44.990;20.288;2023-03-19T04:27:24;5.72;;;4.22;;
76714;SDS011;65644;44.990;20.288;2023-03-19T04:29:50;6.20;;;4.80;;
76714;SDS011;65644;44.990;20.288;2023-03-19T04:32:16;6.97;;;4.97;;
76714;SDS011;65644;44.990;20.288;2023-03-19T04:34:42;9.00;;;5.13;;
76714;SDS011;65644;44.990;20.288;2023-03-19T04:37:08;5.33;;;4.20;;
76714;SDS011;65644;44.990;20.288;2023-03-19T04:39:35;5.63;;;4.73;;
76714;SDS011;65644;44.990;20.288;2023-03-19T04:42:01;7.40;;;4.47;;
76714;SDS011;65644;44.990;20.288;2023-03-19T04:44:28;6.33;;;4.13;;
76714;SDS011;65644;44.990;20.288;2023-03-19T04:46:55;6.33;;;4.40;;
76714;SDS011;65644;44.990;20.288;2023-03-19T04:49:21;5.63;;;4.38;;
76714;SDS011;65644;44.990;20.288;2023-03-19T04:51:48;7.27;;;5.10;;
76714;SDS011;65644;44.990;20.288;2023-03-19T04:54:14;7.40;;;4.47;;
76714;SDS011;65644;44.990;20.288;2023-03-19T04:56:40;5.40;;;4.03;;
76714;SDS011;65644;44.990;20.288;2023-03-19T04:59:06;6.60;;;4.43;;
76714;SDS011;65644;44.990;20.288;2023-03-19T05:01:34;6.67;;;5.23;;
76714;SDS011;65644;44.990;20.288;2023-03-19T05:04:01;8.50;;;4.57;;
76714;SDS011;65644;44.990;20.288;2023-03-19T05:06:27;5.67;;;4.10;;
76714;SDS011;65644;44.990;20.288;2023-03-19T05:08:53;7.63;;;4.47;;
76714;SDS011;65644;44.990;20.288;2023-03-19T05:11:19;5.93;;;4.20;;
76714;SDS011;65644;44.990;20.288;2023-03-19T05:13:45;6.33;;;4.53;;
76714;SDS011;65644;44.990;20.288;2023-03-19T05:16:12;6.40;;;4.77;;
76714;SDS011;65644;44.990;20.288;2023-03-19T05:18:38;8.10;;;4.03;;
76714;SDS011;65644;44.990;20.288;2023-03-19T05:21:04;6.90;;;4.80;;
76714;SDS011;65644;44.990;20.288;2023-03-19T05:23:30;6.47;;;4.40;;
76714;SDS011;65644;44.990;20.288;2023-03-19T05:25:57;5.63;;;4.33;;
76714;SDS011;65644;44.990;20.288;2023-03-19T05:28:25;6.43;;;4.03;;
76714;SDS011;65644;44.990;20.288;2023-03-19T05:30:51;6.70;;;4.30;;
76714;SDS011;65644;44.990;20.288;2023-03-19T05:33:17;8.35;;;4.50;;
76714;SDS011;65644;44.990;20.288;2023-03-19T05:35:43;8.40;;;4.60;;
76714;SDS011;65644;44.990;20.288;2023-03-19T05:38:09;6.70;;;4.68;;
76714;SDS011;65644;44.990;20.288;2023-03-19T05:40:36;6.17;;;5.30;;
76714;SDS011;65644;44.990;20.288;2023-03-19T05:43:05;6.63;;;5.00;;
76714;SDS011;65644;44.990;20.288;2023-03-19T05:45:31;11.43;;;5.67;;
76714;SDS011;65644;44.990;20.288;2023-03-19T05:47:57;12.85;;;5.78;;
76714;SDS011;65644;44.990;20.288;2023-03-19T05:50:24;14.32;;;8.05;;
76714;SDS011;65644;44.990;20.288;2023-03-19T05:52:50;11.90;;;7.07;;
76714;SDS011;65644;44.990;20.288;2023-03-19T05:55:16;21.77;;;11.27;;
76714;SDS011;65644;44.990;20.288;2023-03-19T05:57:42;73.97;;;34.58;;
76714;SDS011;65644;44.990;20.288;2023-03-19T06:00:09;20.58;;;11.20;;
76714;SDS011;65644;44.990;20.288;2023-03-19T06:02:36;13.60;;;7.95;;
76714;SDS011;65644;44.990;20.288;2023-03-19T06:05:03;16.02;;;9.00;;
76714;SDS011;65644;44.990;20.288;2023-03-19T06:07:29;13.30;;;7.47;;
76714;SDS011;65644;44.990;20.288;2023-03-19T06:09:55;15.48;;;8.13;;
76714;SDS011;65644;44.990;20.288;2023-03-19T06:12:21;9.05;;;5.57;;
76714;SDS011;65644;44.990;20.288;2023-03-19T06:14:48;8.02;;;5.95;;
76714;SDS011;65644;44.990;20.288;2023-03-19T06:17:14;6.50;;;5.07;;
76714;SDS011;65644;44.990;20.288;2023-03-19T06:19:40;5.35;;;4.45;;
76714;SDS011;65644;44.990;20.288;2023-03-19T06:22:06;5.95;;;4.18;;
76714;SDS011;65644;44.990;20.288;2023-03-19T06:24:33;10.15;;;4.75;;
76714;SDS011;65644;44.990;20.288;2023-03-19T06:26:59;8.07;;;4.80;;
76714;SDS011;65644;44.990;20.288;2023-03-19T06:29:25;8.55;;;4.60;;
76714;SDS011;65644;44.990;20.288;2023-03-19T06:31:51;6.80;;;4.43;;
76714;SDS011;65644;44.990;20.288;2023-03-19T06:34:17;5.57;;;4.05;;
76714;SDS011;65644;44.990;20.288;2023-03-19T06:36:43;7.18;;;4.63;;
76714;SDS011;65644;44.990;20.288;2023-03-19T06:39:10;6.28;;;4.20;;
76714;SDS011;65644;44.990;20.288;2023-03-19T06:41:36;7.13;;;4.38;;
76714;SDS011;65644;44.990;20.288;2023-03-19T06:44:02;6.43;;;4.15;;
76714;SDS011;65644;44.990;20.288;2023-03-19T06:46:28;5.10;;;3.88;;
76714;SDS011;65644;44.990;20.288;2023-03-19T06:48:55;5.68;;;3.88;;
76714;SDS011;65644;44.990;20.288;2023-03-19T06:51:22;5.28;;;3.70;;
76714;SDS011;65644;44.990;20.288;2023-03-19T06:53:48;4.70;;;3.80;;
76714;SDS011;65644;44.990;20.288;2023-03-19T06:56:14;5.35;;;4.25;;
76714;SDS011;65644;44.990;20.288;2023-03-19T06:58:40;6.80;;;3.53;;
76714;SDS011;65644;44.990;20.288;2023-03-19T07:01:06;5.07;;;3.47;;
76714;SDS011;65644;44.990;20.288;2023-03-19T07:03:32;4.32;;;3.47;;
76714;SDS011;65644;44.990;20.288;2023-03-19T07:05:59;5.50;;;3.28;;
76714;SDS011;65644;44.990;20.288;2023-03-19T07:08:25;6.60;;;4.00;;
76714;SDS011;65644;44.990;20.288;2023-03-19T07:10:54;3.80;;;3.33;;
76714;SDS011;65644;44.990;20.288;2023-03-19T07:13:20;16.20;;;4.05;;
76714;SDS011;65644;44.990;20.288;2023-03-19T07:15:46;4.88;;;3.47;;
76714;SDS011;65644;44.990;20.288;2023-03-19T07:18:12;6.10;;;3.40;;
76714;SDS011;65644;44.990;20.288;2023-03-19T07:20:38;4.40;;;3.25;;
76714;SDS011;65644;44.990;20.288;2023-03-19T07:23:04;4.57;;;2.80;;
76714;SDS011;65644;44.990;20.288;2023-03-19T07:25:30;4.60;;;3.10;;
76714;SDS011;65644;44.990;20.288;2023-03-19T07:27:56;5.40;;;3.42;;
76714;SDS011;65644;44.990;20.288;2023-03-19T07:30:22;4.15;;;2.80;;
76714;SDS011;65644;44.990;20.288;2023-03-19T07:32:49;5.15;;;3.00;;
76714;SDS011;65644;44.990;20.288;2023-03-19T07:35:15;4.10;;;3.20;;
76714;SDS011;65644;44.990;20.288;2023-03-19T07:37:41;6.20;;;3.60;;
76714;SDS011;65644;44.990;20.288;2023-03-19T07:40:07;4.47;;;3.20;;
76714;SDS011;65644;44.990;20.288;2023-03-19T07:42:34;7.00;;;3.30;;
76714;SDS011;65644;44.990;20.288;2023-03-19T07:45:01;4.15;;;3.40;;
76714;SDS011;65644;44.990;20.288;2023-03-19T07:47:27;6.00;;;3.55;;
76714;SDS011;65644;44.990;20.288;2023-03-19T07:49:55;3.92;;;3.28;;
76714;SDS011;65644;44.990;20.288;2023-03-19T07:52:21;4.65;;;3.55;;
76714;SDS011;65644;44.990;20.288;2023-03-19T07:54:47;5.10;;;3.28;;
76714;SDS011;65644;44.990;20.288;2023-03-19T07:57:14;4.53;;;3.42;;
76714;SDS011;65644;44.990;20.288;2023-03-19T07:59:40;4.78;;;2.90;;
76714;SDS011;65644;44.990;20.288;2023-03-19T08:02:10;6.50;;;3.83;;
76714;SDS011;65644;44.990;20.288;2023-03-19T08:04:36;5.75;;;3.40;;
76714;SDS011;65644;44.990;20.288;2023-03-19T08:07:03;7.47;;;3.85;;
76714;SDS011;65644;44.990;20.288;2023-03-19T08:09:29;5.15;;;3.25;;
76714;SDS011;65644;44.990;20.288;2023-03-19T08:11:55;6.32;;;3.55;;
76714;SDS011;65644;44.990;20.288;2023-03-19T08:14:21;8.15;;;5.43;;
76714;SDS011;65644;44.990;20.288;2023-03-19T08:16:47;5.25;;;3.65;;
76714;SDS011;65644;44.990;20.288;2023-03-19T08:19:13;4.68;;;3.58;;
76714;SDS011;65644;44.990;20.288;2023-03-19T08:21:40;4.68;;;3.60;;
76714;SDS011;65644;44.990;20.288;2023-03-19T08:24:07;11.23;;;4.10;;
76714;SDS011;65644;44.990;20.288;2023-03-19T08:26:33;5.50;;;3.63;;
76714;SDS011;65644;44.990;20.288;2023-03-19T08:28:59;5.80;;;3.92;;
76714;SDS011;65644;44.990;20.288;2023-03-19T08:31:25;4.45;;;3.55;;
76714;SDS011;65644;44.990;20.288;2023-03-19T08:33:51;4.07;;;3.58;;
76714;SDS011;65644;44.990;20.288;2023-03-19T08:36:17;4.07;;;3.40;;
76714;SDS011;65644;44.990;20.288;2023-03-19T08:38:43;7.13;;;3.85;;
76714;SDS011;65644;44.990;20.288;2023-03-19T08:41:09;5.10;;;4.13;;
76714;SDS011;65644;44.990;20.288;2023-03-19T08:43:36;5.40;;;3.90;;
76714;SDS011;65644;44.990;20.288;2023-03-19T08:46:03;7.80;;;3.67;;
76714;SDS011;65644;44.990;20.288;2023-03-19T08:48:29;5.75;;;3.95;;
76714;SDS011;65644;44.990;20.288;2023-03-19T08:50:59;4.43;;;3.95;;
76714;SDS011;65644;44.990;20.288;2023-03-19T08:53:26;5.47;;;4.22;;
76714;SDS011;65644;44.990;20.288;2023-03-19T08:55:59;5.72;;;3.63;;
76714;SDS011;65644;44.990;20.288;2023-03-19T08:58:26;6.60;;;3.90;;
76714;SDS011;65644;44.990;20.288;2023-03-19T09:00:52;5.68;;;3.85;;
76714;SDS011;65644;44.990;20.288;2023-03-19T09:03:19;5.40;;;3.63;;
76714;SDS011;65644;44.990;20.288;2023-03-19T09:05:47;7.35;;;4.53;;
76714;SDS011;65644;44.990;20.288;2023-03-19T09:08:13;6.93;;;4.22;;
76714;SDS011;65644;44.990;20.288;2023-03-19T09:10:39;6.07;;;4.25;;
76714;SDS011;65644;44.990;20.288;2023-03-19T09:13:05;6.75;;;4.20;;
76714;SDS011;65644;44.990;20.288;2023-03-19T09:15:31;7.40;;;4.53;;
76714;SDS011;65644;44.990;20.288;2023-03-19T09:17:57;6.57;;;4.53;;
76714;SDS011;65644;44.990;20.288;2023-03-19T09:20:23;9.23;;;4.60;;
76714;SDS011;65644;44.990;20.288;2023-03-19T09:22:49;6.80;;;4.32;;
76714;SDS011;65644;44.990;20.288;2023-03-19T09:25:15;5.97;;;4.35;;
76714;SDS011;65644;44.990;20.288;2023-03-19T09:27:41;7.65;;;4.75;;
76714;SDS011;65644;44.990;20.288;2023-03-19T09:30:08;5.32;;;4.10;;
76714;SDS011;65644;44.990;20.288;2023-03-19T09:32:34;8.45;;;5.90;;
76714;SDS011;65644;44.990;20.288;2023-03-19T09:35:00;7.00;;;4.68;;
76714;SDS011;65644;44.990;20.288;2023-03-19T09:37:26;7.32;;;4.95;;
76714;SDS011;65644;44.990;20.288;2023-03-19T09:39:52;9.27;;;4.13;;
76714;SDS011;65644;44.990;20.288;2023-03-19T09:42:24;7.53;;;4.57;;
76714;SDS011;65644;44.990;20.288;2023-03-19T09:44:52;7.10;;;4.85;;
76714;SDS011;65644;44.990;20.288;2023-03-19T09:47:23;9.25;;;4.75;;
76714;SDS011;65644;44.990;20.288;2023-03-19T09:49:50;6.90;;;4.32;;
76714;SDS011;65644;44.990;20.288;2023-03-19T09:52:26;7.78;;;5.10;;
76714;SDS011;65644;44.990;20.288;2023-03-19T09:55:05;6.28;;;4.60;;
76714;SDS011;65644;44.990;20.288;2023-03-19T09:57:36;6.65;;;4.53;;
76714;SDS011;65644;44.990;20.288;2023-03-19T10:00:08;6.53;;;4.07;;
76714;SDS011;65644;44.990;20.288;2023-03-19T10:02:40;5.57;;;4.38;;
76714;SDS011;65644;44.990;20.288;2023-03-19T10:05:14;5.78;;;4.15;;
76714;SDS011;65644;44.990;20.288;2023-03-19T10:12:56;5.80;;;5.03;;
76714;SDS011;65644;44.990;20.288;2023-03-19T10:15:30;6.35;;;4.47;;
76714;SDS011;65644;44.990;20.288;2023-03-19T10:18:10;5.50;;;4.65;;
76714;SDS011;65644;44.990;20.288;2023-03-19T10:25:47;8.13;;;5.68;;
76714;SDS011;65644;44.990;20.288;2023-03-19T10:28:16;7.38;;;6.03;;
76714;SDS011;65644;44.990;20.288;2023-03-19T10:34:15;6.78;;;5.13;;
76714;SDS011;65644;44.990;20.288;2023-03-19T10:36:13;7.93;;;5.25;;
76714;SDS011;65644;44.990;20.288;2023-03-19T10:38:40;10.52;;;5.10;;
76714;SDS011;65644;44.990;20.288;2023-03-19T10:41:15;11.65;;;6.90;;
76714;SDS011;65644;44.990;20.288;2023-03-19T10:43:45;6.22;;;4.88;;
76714;SDS011;65644;44.990;20.288;2023-03-19T10:46:13;6.28;;;4.85;;
76714;SDS011;65644;44.990;20.288;2023-03-19T10:48:43;6.82;;;4.85;;
76714;SDS011;65644;44.990;20.288;2023-03-19T10:51:12;5.70;;;4.97;;
76714;SDS011;65644;44.990;20.288;2023-03-19T10:53:39;6.97;;;4.85;;
76714;SDS011;65644;44.990;20.288;2023-03-19T10:56:25;8.30;;;4.82;;
76714;SDS011;65644;44.990;20.288;2023-03-19T10:59:19;6.28;;;4.30;;
76714;SDS011;65644;44.990;20.288;2023-03-19T11:01:40;5.57;;;4.43;;
76714;SDS011;65644;44.990;20.288;2023-03-19T11:04:15;5.22;;;4.25;;
76714;SDS011;65644;44.990;20.288;2023-03-19T11:11:46;6.13;;;4.57;;
76714;SDS011;65644;44.990;20.288;2023-03-19T11:14:16;4.55;;;3.85;;
76714;SDS011;65644;44.990;20.288;2023-03-19T11:19:25;8.18;;;4.88;;
76714;SDS011;65644;44.990;20.288;2023-03-19T11:21:59;8.02;;;4.07;;
76714;SDS011;65644;44.990;20.288;2023-03-19T11:24:26;6.15;;;4.05;;
76714;SDS011;65644;44.990;20.288;2023-03-19T11:26:53;6.63;;;4.53;;
76714;SDS011;65644;44.990;20.288;2023-03-19T11:29:19;7.00;;;4.20;;
76714;SDS011;65644;44.990;20.288;2023-03-19T11:34:32;4.93;;;4.15;;
76714;SDS011;65644;44.990;20.288;2023-03-19T11:37:26;6.77;;;4.23;;
76714;SDS011;65644;44.990;20.288;2023-03-19T11:40:00;4.60;;;3.97;;
76714;SDS011;65644;44.990;20.288;2023-03-19T12:00:55;23.75;;;14.52;;
76714;SDS011;65644;44.990;20.288;2023-03-19T12:14:05;41.92;;;23.17;;
76714;SDS011;65644;44.990;20.288;2023-03-19T12:19:02;24.10;;;12.70;;
76714;SDS011;65644;44.990;20.288;2023-03-19T12:29:45;5.38;;;4.50;;
76714;SDS011;65644;44.990;20.288;2023-03-19T12:32:27;11.23;;;6.90;;
76714;SDS011;65644;44.990;20.288;2023-03-19T12:34:57;10.60;;;6.30;;
76714;SDS011;65644;44.990;20.288;2023-03-19T12:37:30;5.88;;;5.28;;
76714;SDS011;65644;44.990;20.288;2023-03-19T12:42:38;13.70;;;10.38;;
76714;SDS011;65644;44.990;20.288;2023-03-19T12:45:21;6.07;;;5.18;;
76714;SDS011;65644;44.990;20.288;2023-03-19T12:47:48;11.77;;;7.93;;
76714;SDS011;65644;44.990;20.288;2023-03-19T12:50:15;7.95;;;5.32;;
76714;SDS011;65644;44.990;20.288;2023-03-19T12:52:43;7.28;;;4.88;;
76714;SDS011;65644;44.990;20.288;2023-03-19T13:00:38;6.03;;;4.47;;
76714;SDS011;65644;44.990;20.288;2023-03-19T13:03:18;8.20;;;5.30;;
76714;SDS011;65644;44.990;20.288;2023-03-19T13:06:00;5.22;;;4.50;;
76714;SDS011;65644;44.990;20.288;2023-03-19T13:08:34;5.70;;;4.88;;
76714;SDS011;65644;44.990;20.288;2023-03-19T13:11:03;4.95;;;4.45;;
76714;SDS011;65644;44.990;20.288;2023-03-19T13:16:30;5.95;;;4.38;;
76714;SDS011;65644;44.990;20.288;2023-03-19T13:19:03;6.25;;;5.05;;
76714;SDS011;65644;44.990;20.288;2023-03-19T13:21:33;6.47;;;4.00;;
76714;SDS011;65644;44.990;20.288;2023-03-19T13:24:06;7.55;;;4.35;;
76714;SDS011;65644;44.990;20.288;2023-03-19T13:26:34;6.22;;;4.28;;
76714;SDS011;65644;44.990;20.288;2023-03-19T13:29:08;8.50;;;6.35;;
76714;SDS011;65644;44.990;20.288;2023-03-19T13:31:38;10.38;;;7.75;;
76714;SDS011;65644;44.990;20.288;2023-03-19T13:34:17;28.80;;;15.02;;
76714;SDS011;65644;44.990;20.288;2023-03-19T13:36:45;14.90;;;8.90;;
76714;SDS011;65644;44.990;20.288;2023-03-19T13:39:19;13.80;;;9.40;;
76714;SDS011;65644;44.990;20.288;2023-03-19T13:41:47;10.50;;;7.32;;
76714;SDS011;65644;44.990;20.288;2023-03-19T13:50:10;30.90;;;18.75;;
76714;SDS011;65644;44.990;20.288;2023-03-19T13:57:53;7.00;;;6.00;;
76714;SDS011;65644;44.990;20.288;2023-03-19T14:03:21;9.98;;;8.35;;
76714;SDS011;65644;44.990;20.288;2023-03-19T14:05:47;18.48;;;12.55;;
76714;SDS011;65644;44.990;20.288;2023-03-19T14:08:16;9.30;;;5.95;;
76714;SDS011;65644;44.990;20.288;2023-03-19T14:10:48;4.45;;;4.05;;
76714;SDS011;65644;44.990;20.288;2023-03-19T14:13:20;4.63;;;4.07;;
76714;SDS011;65644;44.990;20.288;2023-03-19T14:15:49;5.43;;;4.20;;
76714;SDS011;65644;44.990;20.288;2023-03-19T14:18:20;5.80;;;4.45;;
76714;SDS011;65644;44.990;20.288;2023-03-19T14:23:23;8.32;;;6.18;;
76714;SDS011;65644;44.990;20.288;2023-03-19T14:25:55;12.15;;;8.93;;
76714;SDS011;65644;44.990;20.288;2023-03-19T14:28:28;21.05;;;11.90;;
76714;SDS011;65644;44.990;20.288;2023-03-19T14:30:57;52.05;;;33.00;;
76714;SDS011;65644;44.990;20.288;2023-03-19T14:33:28;6.22;;;5.25;;
76714;SDS011;65644;44.990;20.288;2023-03-19T14:35:57;10.05;;;6.75;;
76714;SDS011;65644;44.990;20.288;2023-03-19T14:38:30;10.05;;;5.43;;
76714;SDS011;65644;44.990;20.288;2023-03-19T14:40:57;6.47;;;5.80;;
76714;SDS011;65644;44.990;20.288;2023-03-19T14:43:31;39.17;;;23.42;;
76714;SDS011;65644;44.990;20.288;2023-03-19T14:46:03;46.05;;;27.27;;
76714;SDS011;65644;44.990;20.288;2023-03-19T14:48:48;75.85;;;44.58;;
76714;SDS011;65644;44.990;20.288;2023-03-19T14:53:45;65.78;;;31.88;;
76714;SDS011;65644;44.990;20.288;2023-03-19T14:56:15;10.93;;;7.18;;
76714;SDS011;65644;44.990;20.288;2023-03-19T14:58:47;6.05;;;4.43;;
76714;SDS011;65644;44.990;20.288;2023-03-19T15:01:14;6.78;;;4.95;;
76714;SDS011;65644;44.990;20.288;2023-03-19T15:03:40;6.25;;;4.65;;
76714;SDS011;65644;44.990;20.288;2023-03-19T15:06:06;5.18;;;4.13;;
76714;SDS011;65644;44.990;20.288;2023-03-19T15:08:34;8.23;;;4.30;;
76714;SDS011;65644;44.990;20.288;2023-03-19T15:16:16;8.20;;;4.60;;
76714;SDS011;65644;44.990;20.288;2023-03-19T15:18:44;7.18;;;4.40;;
76714;SDS011;65644;44.990;20.288;2023-03-19T15:21:10;30.35;;;18.35;;
76714;SDS011;65644;44.990;20.288;2023-03-19T15:23:37;45.25;;;25.67;;
76714;SDS011;65644;44.990;20.288;2023-03-19T15:26:05;39.45;;;20.75;;
76714;SDS011;65644;44.990;20.288;2023-03-19T15:28:48;49.63;;;26.27;;
76714;SDS011;65644;44.990;20.288;2023-03-19T15:31:15;22.38;;;14.25;;
76714;SDS011;65644;44.990;20.288;2023-03-19T15:33:42;35.70;;;20.92;;
76714;SDS011;65644;44.990;20.288;2023-03-19T15:38:36;12.32;;;8.77;;
76714;SDS011;65644;44.990;20.288;2023-03-19T15:41:04;37.78;;;21.20;;
76714;SDS011;65644;44.990;20.288;2023-03-19T15:43:31;14.00;;;9.82;;
76714;SDS011;65644;44.990;20.288;2023-03-19T15:45:58;7.10;;;5.22;;
76714;SDS011;65644;44.990;20.288;2023-03-19T15:48:33;18.27;;;11.88;;
76714;SDS011;65644;44.990;20.288;2023-03-19T15:51:02;12.00;;;8.27;;
76714;SDS011;65644;44.990;20.288;2023-03-19T15:53:31;12.38;;;9.05;;
76714;SDS011;65644;44.990;20.288;2023-03-19T15:55:58;20.90;;;14.55;;
76714;SDS011;65644;44.990;20.288;2023-03-19T15:58:26;17.92;;;12.30;;
76714;SDS011;65644;44.990;20.288;2023-03-19T16:00:53;23.13;;;11.20;;
76714;SDS011;65644;44.990;20.288;2023-03-19T16:03:41;22.55;;;11.05;;
76714;SDS011;65644;44.990;20.288;2023-03-19T16:06:11;20.05;;;9.50;;
76714;SDS011;65644;44.990;20.288;2023-03-19T16:08:44;9.18;;;5.88;;
76714;SDS011;65644;44.990;20.288;2023-03-19T16:11:11;15.40;;;8.05;;
76714;SDS011;65644;44.990;20.288;2023-03-19T16:13:39;19.58;;;8.80;;
76714;SDS011;65644;44.990;20.288;2023-03-19T16:16:16;20.73;;;9.00;;
76714;SDS011;65644;44.990;20.288;2023-03-19T16:18:46;13.95;;;8.23;;
76714;SDS011;65644;44.990;20.288;2023-03-19T16:21:16;15.85;;;8.57;;